Pigeon, Michigan
Current Conditions -  °F | °C
As of 11:15 AM on Monday 22 Dec 2014 (Local Time) from KBAX Reporting Station
Broken Clouds Broken Clouds  
Wind Chill: 26°   Ceiling: 2000
Heat Index: 32°   Visibility: 10mi
Dew Point: 26°   Wind: 7mph
Humidity: 80%   Direction: 140°SE
Pressure: 30.1"   Gusts: NA
Location:  43.83°N, 83.27°W
Report Text: KBAX 221615Z AUTO 14006KT 10SM BKN020 00/M03 A3010 RMK AO2 T00001031
Loading
Personal Weather Stations






























Interactive Weather Map New forecast layout! Learn more

10-Day Weather Forecast

Advertisements
Track Severe Weather on mobile